Nearby METAR Reports

 

KBMG - Bloomington, Indiana, USA
Distance from station: SSE 11mi, 18km
Updated: Sun, 03-Mar-2024 4:53pm EST
Clear
Clear
 Wind from S
Wind: S 14 mph , 22 km/h, Gust: 28 mph , 44 km/h
Temperature: 72°F , 22°C
Dew Point: 41°F , 5°C
Humidity: 33%
Barometer: 29.92 inHg , 1013.2 hPa
Clouds: Clear
Visibility: 10 miles , 16 km
2024/03/03 21:53 KBMG 032153Z 18012G24KT 10SM CLR 22/05 A2992 RMK AO2 SLP129 T02170050
KGPC - Greencastle, Indiana, USA
Distance from station: NNW 24mi, 39km
Updated: Sun, 03-Mar-2024 4:55pm EST
Clear
Clear
 Wind from S
Wind: S 21 mph , 33 km/h, Gust: 28 mph , 44 km/h
Temperature: 70°F , 21°C
Dew Point: 36°F , 2°C
Humidity: 29%
Barometer: 29.90 inHg , 1012.5 hPa
Clouds: Clear
Visibility: 10 miles , 16 km
2024/03/03 21:55 KGPC 032155Z AUTO 17018G24KT 10SM CLR 21/02 A2990 RMK AO2 T02150022
 
KHUF - Terre Haute, Indiana, USA
Distance from station: WNW 34mi, 54km
Updated: Sun, 03-Mar-2024 4:53pm EST
Clear
Clear
 Wind from S
Wind: S 20 mph , 31 km/h, Gust: 29 mph , 46 km/h
Temperature: 72°F , 22°C
Dew Point: 46°F , 8°C
Humidity: 41%
Barometer: 29.88 inHg , 1011.9 hPa
Clouds: Clear
Visibility: 10 miles , 16 km
2024/03/03 21:53 KHUF 032153Z 19017G25KT 10SM CLR 22/08 A2988 RMK AO2 PK WND 21026/2117 SLP118 T02170078
KIND - Indianapolis, Indiana, USA
Distance from station: NE 36mi, 58km
Updated: Sun, 03-Mar-2024 4:54pm EST
Mostly cloudy
Mostly cloudy
 Wind from SSE
Wind: SSE 17 mph , 28 km/h, Gust: 25 mph , 41 km/h
Temperature: 68°F , 20°C
Dew Point: 46°F , 8°C
Humidity: 46%
Barometer: 29.91 inHg , 1012.9 hPa
Clouds: Mostly cloudy
Visibility: 10 miles , 16 km
Cloud details: Mostly cloudy 25000 ft
2024/03/03 21:54 KIND 032154Z 16015G22KT 10SM BKN250 20/08 A2991 RMK AO2 SLP128 T02000083 $
 
KHFY - Indianapolis, Indiana, USA
Distance from station: NE 40mi, 65km
Updated: Sun, 03-Mar-2024 5:15pm EST
Clear
Clear
 Wind from S
Wind: S 14 mph , 22 km/h, Gust: 24 mph , 39 km/h
Temperature: 68°F , 20°C
Dew Point: 43°F , 6°C
Humidity: 40%
Barometer: 29.95 inHg , 1014.2 hPa
Clouds: Clear
Visibility: 10 miles , 16 km
2024/03/03 22:15 KHFY 032215Z AUTO 17012G21KT 10SM CLR 20/06 A2995 RMK AO2 T01950056
KBAK - Columbus/Balkala, Indiana, USA
Distance from station: E 43mi, 69km
Updated: Sun, 03-Mar-2024 4:45pm EST
Clear
Clear
 Wind from S
Wind: S 10 mph , 17 km/h, Gust: 20 mph , 31 km/h
Temperature: 66°F , 19°C
Dew Point: 45°F , 7°C
Humidity: 46%
Barometer: 29.96 inHg , 1014.6 hPa
Clouds: Clear
Visibility: 10 miles , 16 km
2024/03/03 21:45 KBAK 032145Z 17009G17KT 10SM CLR 19/07 A2996
 
KEYE - Indianapolis, Indiana, USA
Distance from station: NNE 43mi, 69km
Updated: Sun, 03-Mar-2024 4:53pm EST
Clear
Clear
 Wind from SSE
Wind: SSE 10 mph , 17 km/h, Gust: 22 mph , 35 km/h
Temperature: 70°F , 21°C
Dew Point: 46°F , 8°C
Humidity: 43%
Barometer: 29.91 inHg , 1012.9 hPa
Clouds: Clear
Visibility: 10 miles , 16 km
2024/03/03 21:53 KEYE 032153Z AUTO 15009G19KT 10SM CLR 21/08 A2991 RMK AO2 SLP127 T02110083
KDCY - Daviess County, Indiana, USA
Distance from station: SSW 47mi, 76km
Updated: Sun, 03-Mar-2024 4:55pm EST
Clear
Clear
 Wind from S
Wind: S 17 mph , 28 km/h, Gust: 24 mph , 39 km/h
Temperature: 70°F , 21°C
Dew Point: 45°F , 7°C
Humidity: 40%
Barometer: 29.92 inHg , 1013.2 hPa
Clouds: Clear
Visibility: 10 miles , 16 km
2024/03/03 21:55 KDCY 032155Z AUTO 18015G21KT 10SM CLR 21/07 A2992 RMK AO2 T02110069
 
KCFJ - Crawfordsville, Indiana, USA
Distance from station: NNW 49mi, 78km
Updated: Sun, 03-Mar-2024 4:55pm EST
Clear
Clear
 Wind from S
Wind: S 15 mph , 24 km/h, Gust: 21 mph , 33 km/h
Temperature: 68°F , 20°C
Dew Point: 32°F , 0°C
Humidity: 26%
Barometer: 29.89 inHg , 1012.2 hPa
Clouds: Clear
Visibility: 10 miles , 16 km
2024/03/03 21:55 KCFJ 032155Z AUTO 19013G18KT 10SM CLR 20/00 A2989 RMK AO2 LTG DSNT NW T02010001